Time;durP1;ratioP1;P1;durP2;ratioP2;P2;SDS_P1;SDS_P2;PMS_P1;PMS_P2;Temp;Humidity;BMP_temperature;BMP_pressure;BME280_temperature;BME280_humidity;BME280_pressure;Samples;Min_cycle;Max_cycle;Signal;HPM_P1;HPM_P2
2022/04/04 00:02:05;;;;;;;5.30;2.95;;;4.90;99.90;;;;;;5096646;23;20049;-80
2022/04/04 00:04:31;;;;;;;6.65;2.88;;;3.70;99.90;;;;;;5108456;22;20047;-80
2022/04/04 00:06:59;;;;;;;5.35;2.72;;;5.00;99.90;;;;;;5132337;22;20082;-80
2022/04/04 00:09:25;;;;;;;5.53;3.17;;;4.00;99.90;;;;;;5121261;22;20067;-80
2022/04/04 00:11:51;;;;;;;7.30;3.50;;;3.90;99.90;;;;;;5123104;22;20072;-80
2022/04/04 00:14:17;;;;;;;7.32;3.38;;;3.80;99.90;;;;;;5129618;22;20073;-80
2022/04/04 00:16:43;;;;;;;7.25;3.35;;;5.40;99.90;;;;;;5126818;22;20052;-80
2022/04/04 00:19:09;;;;;;;6.90;3.40;;;3.60;99.90;;;;;;5101728;22;20074;-80
2022/04/04 00:24:06;;;;;;;7.35;4.05;;;3.90;99.90;;;;;;5127663;22;20051;-80
2022/04/04 00:26:33;;;;;;;9.07;3.78;;;3.90;99.90;;;;;;5090242;22;20059;-81
2022/04/04 00:28:58;;;;;;;10.80;4.85;;;4.00;99.90;;;;;;5081540;28;20048;-80
2022/04/04 00:33:49;;;;;;;10.90;5.15;;;3.90;99.90;;;;;;5142269;22;20136;-80
2022/04/04 00:36:15;;;;;;;10.43;4.90;;;4.00;99.90;;;;;;5101043;22;20044;-80
2022/04/04 00:38:41;;;;;;;10.07;5.15;;;3.80;99.90;;;;;;5114358;22;20066;-81
2022/04/04 00:41:09;;;;;;;10.73;5.40;;;4.30;99.90;;;;;;5104028;22;20048;-80
2022/04/04 00:43:34;;;;;;;10.73;5.47;;;4.00;99.90;;;;;;5101258;22;20060;-80
2022/04/04 00:46:00;;;;;;;15.50;5.88;;;5.30;99.90;;;;;;5100075;22;20142;-80
2022/04/04 00:48:32;;;;;;;11.68;5.85;;;4.60;99.90;;;;;;5125243;22;20059;-80
2022/04/04 00:50:58;;;;;;;10.15;5.22;;;3.60;99.90;;;;;;5082985;22;20155;-80
2022/04/04 00:55:49;;;;;;;10.70;5.30;;;3.90;99.90;;;;;;5136718;22;20115;-80
2022/04/04 00:58:18;;;;;;;11.82;5.32;;;4.00;99.90;;;;;;5086812;22;20062;-80
2022/04/04 01:00:47;;;;;;;9.48;5.35;;;4.50;99.90;;;;;;5104760;22;20048;-80
2022/04/04 01:03:14;;;;;;;11.52;6.35;;;5.10;99.90;;;;;;5082438;22;20451;-80
2022/04/04 01:05:40;;;;;;;12.60;6.72;;;4.80;99.90;;;;;;5088401;22;20055;-80
2022/04/04 01:08:06;;;;;;;13.32;7.20;;;4.50;99.90;;;;;;5093454;22;20045;-80
2022/04/04 01:10:31;;;;;;;11.70;6.78;;;3.70;99.90;;;;;;5093565;22;20124;-80
2022/04/04 01:12:57;;;;;;;15.32;8.05;;;5.00;99.90;;;;;;5077385;22;20052;-80
2022/04/04 01:15:30;;;;;;;16.05;8.10;;;4.10;99.90;;;;;;5092771;22;20060;-80
2022/04/04 01:17:56;;;;;;;16.75;8.18;;;3.80;99.90;;;;;;5091399;22;20084;-80
2022/04/04 01:20:21;;;;;;;15.68;9.00;;;4.00;99.90;;;;;;5092073;28;20110;-80
2022/04/04 01:22:48;;;;;;;16.73;9.43;;;3.90;99.90;;;;;;5096076;22;20524;-81
2022/04/04 01:25:16;;;;;;;19.60;9.52;;;3.90;99.90;;;;;;5099555;22;20048;-80
2022/04/04 01:27:46;;;;;;;17.95;9.85;;;4.00;99.90;;;;;;5089408;22;20465;-80
2022/04/04 01:30:13;;;;;;;19.05;11.00;;;3.90;99.90;;;;;;5082513;22;20132;-80
2022/04/04 01:32:39;;;;;;;18.77;11.35;;;4.70;99.90;;;;;;5099403;22;20144;-81
2022/04/04 01:35:05;;;;;;;22.80;11.65;;;4.10;99.90;;;;;;5097010;22;20071;-80
2022/04/04 01:37:31;;;;;;;20.08;11.60;;;4.20;99.90;;;;;;5104155;22;20052;-81
2022/04/04 01:39:58;;;;;;;22.10;11.93;;;5.70;99.90;;;;;;5107520;22;20049;-80
2022/04/04 01:42:31;;;;;;;18.60;11.68;;;5.70;99.90;;;;;;5088971;22;20079;-80
2022/04/04 01:44:57;;;;;;;18.83;12.18;;;4.20;99.90;;;;;;5077976;22;20059;-80
2022/04/04 01:47:23;;;;;;;18.48;10.95;;;4.20;99.90;;;;;;5092752;22;20053;-81
2022/04/04 01:49:49;;;;;;;15.95;9.35;;;5.80;99.90;;;;;;5095822;22;20052;-80
2022/04/04 01:52:14;;;;;;;18.00;9.50;;;5.80;99.90;;;;;;5090219;22;20119;-80
2022/04/04 01:54:40;;;;;;;19.65;9.57;;;4.30;99.90;;;;;;5099788;22;20098;-80
2022/04/04 01:57:06;;;;;;;17.38;10.02;;;4.30;99.90;;;;;;5096734;22;20067;-80
2022/04/04 02:02:01;;;;;;;19.35;9.13;;;4.40;99.90;;;;;;5112169;22;20044;-80
2022/04/04 02:04:30;;;;;;;17.45;9.07;;;4.90;99.90;;;;;;5103940;22;20121;-81
2022/04/04 02:06:56;;;;;;;18.05;9.48;;;4.40;99.90;;;;;;5087964;22;20107;-80
2022/04/04 02:09:22;;;;;;;13.80;8.88;;;4.90;99.90;;;;;;5084120;22;20071;-81
2022/04/04 02:11:48;;;;;;;18.33;9.57;;;3.70;99.90;;;;;;5084048;22;20051;-80
2022/04/04 02:14:15;;;;;;;18.15;10.90;;;4.80;99.90;;;;;;5091210;22;20419;-80
2022/04/04 02:16:42;;;;;;;16.67;8.80;;;4.60;99.90;;;;;;5096931;22;20060;-81
2022/04/04 02:19:08;;;;;;;20.15;10.50;;;4.10;99.90;;;;;;5095120;22;20048;-80
2022/04/04 02:21:36;;;;;;;17.05;9.02;;;6.10;99.90;;;;;;5102103;22;20052;-81
2022/04/04 02:24:02;;;;;;;20.00;9.30;;;4.80;99.90;;;;;;5092342;22;20052;-80
2022/04/04 02:26:34;;;;;;;20.27;10.15;;;4.90;99.90;;;;;;5088651;22;20072;31
2022/04/04 02:29:00;;;;;;;18.23;9.95;;;4.80;99.90;;;;;;5066749;22;20060;-80
2022/04/04 02:31:32;;;;;;;16.60;9.60;;;6.10;99.90;;;;;;5098158;22;20078;-80
2022/04/04 02:33:57;;;;;;;17.13;9.93;;;4.90;99.90;;;;;;5080561;22;20445;-80
2022/04/04 02:36:23;;;;;;;17.88;9.30;;;4.80;99.90;;;;;;5095053;22;20051;-80
2022/04/04 02:38:49;;;;;;;15.10;8.98;;;5.00;99.90;;;;;;5109184;22;20062;-80
2022/04/04 02:41:15;;;;;;;22.60;10.45;;;6.20;99.90;;;;;;5102085;22;20078;-80
2022/04/04 02:43:41;;;;;;;19.02;9.60;;;6.50;99.90;;;;;;5110661;22;20234;-81
2022/04/04 02:46:11;;;;;;;19.00;10.48;;;5.90;99.90;;;;;;5105820;22;20048;-80
2022/04/04 02:48:36;;;;;;;18.70;10.32;;;5.40;99.90;;;;;;5110401;22;20048;-81
2022/04/04 02:51:02;;;;;;;17.38;9.75;;;6.10;99.90;;;;;;5092609;22;20138;-80
2022/04/04 02:53:28;;;;;;;17.10;9.00;;;5.10;99.90;;;;;;5098554;22;20591;-80
2022/04/04 02:58:38;;;;;;;19.33;10.02;;;5.50;99.90;;;;;;5115181;22;20056;-81
2022/04/04 03:01:04;;;;;;;18.05;9.07;;;5.70;99.90;;;;;;5105645;22;20052;-80
2022/04/04 03:03:32;;;;;;;18.83;9.90;;;4.70;99.90;;;;;;5100039;22;20055;-81
2022/04/04 03:05:57;;;;;;;17.98;10.23;;;5.10;99.90;;;;;;5087560;22;20045;-80
2022/04/04 03:08:23;;;;;;;17.33;9.93;;;5.10;99.90;;;;;;5104524;22;20051;-81
2022/04/04 03:10:49;;;;;;;17.58;9.50;;;5.20;99.90;;;;;;5095471;22;20060;-81
2022/04/04 03:13:14;;;;;;;19.48;10.40;;;5.60;99.90;;;;;;5096100;22;20052;-80
2022/04/04 03:15:40;;;;;;;20.00;10.55;;;5.90;99.90;;;;;;5107099;22;20507;-81
2022/04/04 03:18:07;;;;;;;19.90;10.02;;;5.20;99.90;;;;;;5080130;22;20099;-80
2022/04/04 03:20:39;;;;;;;18.60;9.50;;;5.20;99.90;;;;;;5082756;22;20081;-80
2022/04/04 03:23:05;;;;;;;19.15;10.05;;;5.30;99.90;;;;;;5088258;22;20055;-80
2022/04/04 03:25:34;;;;;;;19.05;10.48;;;5.30;99.90;;;;;;5094899;22;20139;-80
2022/04/04 03:28:00;;;;;;;20.08;9.65;;;5.30;99.90;;;;;;5082781;22;20358;-80
2022/04/04 03:30:30;;;;;;;19.75;9.18;;;6.30;99.90;;;;;;5072057;22;20053;-81
2022/04/04 03:32:57;;;;;;;19.50;9.63;;;5.70;99.90;;;;;;5082609;22;20053;-80
2022/04/04 03:35:25;;;;;;;15.45;9.27;;;5.30;99.90;;;;;;5076071;23;20093;-81
2022/04/04 03:37:53;;;;;;;20.05;9.48;;;5.30;99.90;;;;;;5109313;22;20064;-80
2022/04/04 03:40:20;;;;;;;18.17;8.65;;;5.90;99.90;;;;;;5091658;22;20074;-80
2022/04/04 03:42:49;;;;;;;23.73;10.48;;;5.30;99.90;;;;;;5103923;22;20048;-80
2022/04/04 03:45:15;;;;;;;19.65;11.07;;;6.30;99.90;;;;;;5096076;22;20066;-80
2022/04/04 03:47:42;;;;;;;15.60;9.07;;;6.40;99.90;;;;;;5106763;22;20059;-81
2022/04/04 03:50:10;;;;;;;18.90;9.70;;;6.10;99.90;;;;;;5086763;22;20048;-80
2022/04/04 03:52:35;;;;;;;20.90;10.23;;;5.30;99.90;;;;;;5085180;22;20053;-80
2022/04/04 03:55:02;;;;;;;19.73;10.75;;;5.30;99.90;;;;;;5085830;22;20075;-80
2022/04/04 03:57:36;;;;;;;21.02;11.65;;;5.20;99.90;;;;;;5090684;22;20060;-81
2022/04/04 04:00:03;;;;;;;17.52;10.20;;;5.20;99.90;;;;;;5072307;22;20053;-80
2022/04/04 04:02:28;;;;;;;26.40;12.23;;;5.20;99.90;;;;;;5077882;22;20060;-80
2022/04/04 04:04:54;;;;;;;18.58;10.75;;;5.60;99.90;;;;;;5102460;22;21114;-80
2022/04/04 04:07:24;;;;;;;20.77;8.85;;;5.10;99.90;;;;;;5076731;22;20536;-80
2022/04/04 04:09:53;;;;;;;17.65;10.02;;;4.70;99.90;;;;;;5074213;22;20056;-79
2022/04/04 04:12:23;;;;;;;16.08;9.25;;;6.40;99.90;;;;;;5088902;22;20048;-79
2022/04/04 04:14:51;;;;;;;19.40;10.82;;;6.20;99.90;;;;;;5073494;22;20097;-80
2022/04/04 04:17:21;;;;;;;20.25;10.88;;;5.50;99.90;;;;;;5084063;22;20052;-79
2022/04/04 04:22:38;;;;;;;22.05;10.40;;;5.40;99.90;;;;;;5102330;22;20502;31
2022/04/04 04:25:05;;;;;;;16.88;9.07;;;5.90;99.90;;;;;;5055358;22;20053;-79
2022/04/04 04:27:33;;;;;;;19.92;9.98;;;5.10;99.90;;;;;;5096564;22;20507;-80
2022/04/04 04:29:58;;;;;;;19.63;10.05;;;6.00;99.90;;;;;;5078024;22;20049;-80
2022/04/04 04:32:24;;;;;;;19.08;9.95;;;5.10;99.90;;;;;;5068038;23;20056;-80
2022/04/04 04:34:50;;;;;;;18.80;9.63;;;6.10;99.90;;;;;;5083475;28;20053;-80
2022/04/04 04:37:17;;;;;;;17.33;9.80;;;6.20;99.90;;;;;;5083150;22;20070;-80
2022/04/04 04:39:43;;;;;;;22.38;10.38;;;4.90;99.90;;;;;;5118235;22;20056;-80
2022/04/04 04:42:10;;;;;;;18.80;10.30;;;5.00;99.90;;;;;;5096690;23;20513;-80
2022/04/04 04:44:36;;;;;;;18.75;10.50;;;5.10;99.90;;;;;;5088233;22;20057;-80
2022/04/04 04:47:02;;;;;;;19.55;10.55;;;5.00;99.90;;;;;;5098861;22;20491;-79
2022/04/04 04:49:34;;;;;;;17.33;8.60;;;5.00;99.90;;;;;;5096001;22;20054;31
2022/04/04 04:52:00;;;;;;;16.15;7.80;;;5.00;99.90;;;;;;5119556;22;20038;-80
2022/04/04 04:54:33;;;;;;;16.77;7.07;;;4.90;99.90;;;;;;5086429;22;20049;-80
2022/04/04 04:56:59;;;;;;;16.05;6.47;;;5.20;99.90;;;;;;5079710;22;20123;-80
2022/04/04 04:59:31;;;;;;;13.23;6.47;;;5.20;99.90;;;;;;5059554;22;20127;-81
2022/04/04 05:01:57;;;;;;;10.93;5.88;;;5.30;99.90;;;;;;5099091;22;20052;-80
2022/04/04 05:04:22;;;;;;;12.30;5.72;;;5.30;99.90;;;;;;5103551;22;20063;-81
2022/04/04 05:06:49;;;;;;;13.15;6.32;;;6.40;99.90;;;;;;5096497;22;20120;-81
2022/04/04 05:09:18;;;;;;;13.48;5.72;;;5.50;99.90;;;;;;5097421;22;20398;-80
2022/04/04 05:11:45;;;;;;;13.23;5.80;;;5.90;99.90;;;;;;5097865;22;20054;-81
2022/04/04 05:14:17;;;;;;;12.82;5.15;;;5.40;99.90;;;;;;5086221;22;20578;-81
2022/04/04 05:16:47;;;;;;;13.82;6.70;;;5.40;99.90;;;;;;5074512;22;20064;-81
2022/04/04 05:19:17;;;;;;;11.68;5.28;;;5.40;99.90;;;;;;5074663;22;20529;-80
2022/04/04 05:21:43;;;;;;;13.10;5.85;;;5.40;99.90;;;;;;5082858;22;20076;-81
2022/04/04 05:24:09;;;;;;;12.00;5.97;;;4.90;99.90;;;;;;5074718;22;20357;-81
2022/04/04 05:26:36;;;;;;;8.05;4.30;;;5.30;99.90;;;;;;5100139;22;20052;-81
2022/04/04 05:29:03;;;;;;;11.32;4.30;;;6.60;99.90;;;;;;5095044;22;20100;-80
2022/04/04 05:31:30;;;;;;;12.52;4.90;;;6.30;99.90;;;;;;5073149;22;20481;-80
2022/04/04 05:33:59;;;;;;;9.48;4.82;;;6.80;99.90;;;;;;5040206;22;1160758;-80
2022/04/04 05:38:53;;;;;;;8.48;3.42;;;5.20;99.90;;;;;;5134596;22;20048;-81
2022/04/04 05:41:19;;;;;;;6.40;3.58;;;6.80;99.90;;;;;;5080512;22;20052;-81
2022/04/04 05:43:47;;;;;;;8.93;3.80;;;5.20;99.90;;;;;;5117407;22;20156;-82
2022/04/04 05:46:14;;;;;;;9.38;3.80;;;5.20;99.90;;;;;;5098816;22;20045;-82
2022/04/04 05:48:40;;;;;;;7.03;3.40;;;5.10;99.90;;;;;;5057429;22;20057;-83
2022/04/04 05:51:05;;;;;;;5.00;2.88;;;5.10;99.90;;;;;;5077467;22;20052;-81
2022/04/04 05:53:31;;;;;;;6.55;3.25;;;6.00;99.90;;;;;;5095010;22;20148;-82
2022/04/04 05:55:57;;;;;;;7.63;3.30;;;4.90;99.90;;;;;;5084720;22;21075;-81
2022/04/04 05:58:22;;;;;;;8.35;3.45;;;4.90;99.90;;;;;;5077344;22;20044;-82
2022/04/04 06:00:48;;;;;;;6.47;3.17;;;6.20;99.90;;;;;;5072196;22;20049;-81
2022/04/04 06:03:14;;;;;;;8.57;2.95;;;4.90;99.90;;;;;;5082618;22;20108;-81
2022/04/04 06:05:41;;;;;;;7.75;3.00;;;5.40;99.90;;;;;;5091722;22;20502;-82
2022/04/04 06:08:07;;;;;;;7.32;2.80;;;4.70;99.90;;;;;;5092255;22;20052;-81
2022/04/04 06:10:33;;;;;;;5.72;2.50;;;4.70;99.90;;;;;;5086300;28;20386;-82
2022/04/04 06:12:59;;;;;;;6.95;3.00;;;5.20;99.90;;;;;;5088396;22;20094;-81
2022/04/04 06:15:25;;;;;;;7.57;3.70;;;4.70;99.90;;;;;;5067732;28;20108;-81
2022/04/04 06:17:52;;;;;;;8.90;3.65;;;4.70;99.90;;;;;;5073943;22;20491;-81
2022/04/04 06:20:19;;;;;;;5.90;3.05;;;4.70;99.90;;;;;;5076532;22;20049;-81
2022/04/04 06:22:45;;;;;;;5.90;3.28;;;4.70;99.90;;;;;;5075658;22;20052;-81
2022/04/04 06:25:14;;;;;;;8.60;3.65;;;4.70;99.90;;;;;;5075664;22;20045;-81
2022/04/04 06:27:41;;;;;;;5.28;3.38;;;4.70;99.90;;;;;;5085420;22;20083;-81
2022/04/04 06:30:08;;;;;;;7.40;3.83;;;4.50;99.90;;;;;;5067202;28;20051;-81
2022/04/04 06:32:34;;;;;;;9.48;4.53;;;4.80;99.90;;;;;;5080016;22;20059;-81
2022/04/04 06:35:00;;;;;;;9.88;4.95;;;5.20;99.90;;;;;;5091302;22;20044;-81
2022/04/04 06:37:26;;;;;;;10.75;4.95;;;6.00;99.90;;;;;;5071589;22;20388;-82
2022/04/04 06:39:52;;;;;;;12.15;5.47;;;4.90;99.90;;;;;;5057190;22;20053;-81
2022/04/04 06:42:19;;;;;;;12.20;5.30;;;4.90;99.90;;;;;;5091970;22;20062;-81
2022/04/04 06:44:45;;;;;;;9.70;4.82;;;5.00;99.90;;;;;;5091486;22;20495;-81
2022/04/04 06:47:10;;;;;;;12.40;5.38;;;5.00;99.90;;;;;;5086097;22;20059;-81
2022/04/04 06:49:36;;;;;;;9.98;5.82;;;6.60;99.90;;;;;;5072597;22;20041;-82
2022/04/04 06:52:03;;;;;;;9.65;5.40;;;5.00;99.90;;;;;;5077301;22;20052;-81
2022/04/04 06:56:55;;;;;;;10.52;6.30;;;5.00;99.90;;;;;;5122713;22;20055;-81
2022/04/04 06:59:21;;;;;;;13.18;6.72;;;5.10;99.90;;;;;;5109388;22;20128;-82
2022/04/04 07:01:47;;;;;;;14.95;7.45;;;5.10;99.90;;;;;;5099835;22;20058;-81
2022/04/04 07:04:13;;;;;;;12.05;6.85;;;5.10;99.90;;;;;;5089865;22;20515;-81
2022/04/04 07:06:39;;;;;;;15.18;8.15;;;5.10;99.90;;;;;;5079909;22;20061;-82
2022/04/04 07:09:05;;;;;;;16.33;7.95;;;5.20;99.90;;;;;;5083731;22;20049;-81
2022/04/04 07:11:35;;;;;;;17.13;8.48;;;5.10;99.90;;;;;;5085939;22;20136;-82
2022/04/04 07:14:02;;;;;;;13.90;7.65;;;5.10;99.90;;;;;;5065875;22;20449;-81
2022/04/04 07:16:29;;;;;;;16.70;9.05;;;5.20;99.90;;;;;;5080883;22;20057;-81
2022/04/04 07:18:55;;;;;;;14.75;7.82;;;6.60;99.90;;;;;;5076606;22;20429;-82
2022/04/04 07:21:22;;;;;;;13.80;7.57;;;6.20;99.90;;;;;;5101631;22;20056;-82
2022/04/04 07:23:49;;;;;;;12.93;7.75;;;5.20;99.90;;;;;;5062229;28;20067;-81
2022/04/04 07:26:19;;;;;;;18.40;8.70;;;5.30;99.90;;;;;;5075209;22;20058;-81
2022/04/04 07:28:47;;;;;;;14.85;8.70;;;5.20;99.90;;;;;;5067250;28;20130;-80
2022/04/04 07:31:17;;;;;;;15.85;6.88;;;5.20;99.90;;;;;;5069907;22;20131;-82
2022/04/04 07:33:43;;;;;;;11.27;7.15;;;6.30;99.90;;;;;;5061616;28;20041;-80
2022/04/04 07:36:10;;;;;;;13.77;7.78;;;5.10;99.90;;;;;;5061403;28;20486;-80
2022/04/04 07:38:36;;;;;;;17.92;8.68;;;5.10;99.90;;;;;;5075829;22;20044;-80
2022/04/04 07:41:02;;;;;;;16.50;8.52;;;5.20;99.90;;;;;;5063597;28;20048;-80
2022/04/04 07:43:28;;;;;;;23.15;10.82;;;5.20;99.90;;;;;;5068279;22;20074;-80
2022/04/04 07:45:55;;;;;;;21.40;9.52;;;5.20;99.90;;;;;;5078380;22;20051;-80
2022/04/04 07:48:21;;;;;;;14.80;7.72;;;5.20;99.90;;;;;;5070120;22;20052;-79
2022/04/04 07:50:47;;;;;;;18.25;9.38;;;6.20;99.90;;;;;;5061228;28;20388;-81
2022/04/04 07:53:13;;;;;;;21.38;9.18;;;5.30;99.90;;;;;;5093779;22;20043;-80
2022/04/04 07:55:40;;;;;;;23.35;8.45;;;5.30;99.90;;;;;;5085679;28;20047;-81
2022/04/04 07:58:06;;;;;;;16.33;9.00;;;5.30;99.90;;;;;;5073352;22;20055;-81
2022/04/04 08:00:32;;;;;;;17.38;7.70;;;5.40;99.90;;;;;;5086182;22;20044;-81
2022/04/04 08:02:58;;;;;;;15.80;7.82;;;5.30;99.90;;;;;;5106076;28;20502;-80
2022/04/04 08:05:25;;;;;;;12.85;6.72;;;5.30;99.90;;;;;;5090537;28;20036;-81
2022/04/04 08:07:52;;;;;;;17.98;7.03;;;5.40;99.90;;;;;;5125227;28;20047;-81
2022/04/04 08:10:18;;;;;;;18.10;7.85;;;5.30;99.90;;;;;;5107098;28;20047;-81
2022/04/04 08:12:46;;;;;;;14.38;7.85;;;5.30;99.90;;;;;;5080529;22;20052;-81
2022/04/04 08:15:12;;;;;;;12.70;7.10;;;5.30;99.90;;;;;;5063184;28;20045;-80
2022/04/04 08:17:38;;;;;;;11.30;6.40;;;5.40;99.90;;;;;;5044870;28;20396;-80
2022/04/04 08:20:05;;;;;;;15.63;8.02;;;5.40;99.90;;;;;;5044817;28;20550;-80
2022/04/04 08:22:41;;;;;;;12.85;6.88;;;5.40;99.90;;;;;;5044780;28;20049;-81
2022/04/04 08:25:08;;;;;;;10.88;6.10;;;5.40;99.90;;;;;;5045908;28;20037;-81
2022/04/04 08:27:35;;;;;;;14.98;6.90;;;5.40;99.90;;;;;;5061489;28;20535;-80
2022/04/04 08:30:05;;;;;;;13.15;6.57;;;5.40;99.90;;;;;;5047122;28;20052;-80
2022/04/04 08:32:33;;;;;;;18.00;7.28;;;5.50;99.90;;;;;;5063718;28;20048;-81
2022/04/04 08:34:59;;;;;;;10.00;5.78;;;5.50;99.90;;;;;;5063969;28;20068;-81
2022/04/04 08:37:25;;;;;;;12.65;6.80;;;5.40;99.90;;;;;;5063197;28;20132;-80
2022/04/04 08:39:50;;;;;;;16.25;6.38;;;5.50;99.90;;;;;;5063505;28;20084;-80
2022/04/04 08:42:20;;;;;;;11.88;6.10;;;5.50;99.90;;;;;;5061208;28;20052;-81
2022/04/04 08:44:48;;;;;;;11.70;5.57;;;5.50;99.90;;;;;;5045150;28;20040;-81
2022/04/04 08:47:18;;;;;;;12.68;5.78;;;5.50;99.90;;;;;;5046854;28;20041;-81
2022/04/04 08:49:44;;;;;;;10.90;6.07;;;5.50;99.90;;;;;;5067767;28;20049;-81
2022/04/04 08:52:09;;;;;;;14.07;7.00;;;5.50;99.90;;;;;;5061610;28;20060;-81
2022/04/04 08:54:35;;;;;;;10.88;6.07;;;6.50;99.90;;;;;;5063420;28;20033;-81
2022/04/04 08:57:01;;;;;;;12.30;6.18;;;5.60;99.90;;;;;;5060390;28;20447;-81
2022/04/04 08:59:26;;;;;;;11.15;5.32;;;5.60;99.90;;;;;;5028341;28;20503;-81
2022/04/04 09:01:53;;;;;;;12.30;5.40;;;5.60;99.90;;;;;;5037770;28;20060;-81
2022/04/04 09:04:21;;;;;;;12.93;5.80;;;5.60;99.90;;;;;;5036219;28;20041;-81
2022/04/04 09:06:50;;;;;;;11.63;6.03;;;6.20;99.90;;;;;;5019177;28;20503;-81
2022/04/04 09:09:18;;;;;;;10.70;6.28;;;5.60;99.90;;;;;;5019324;28;20045;-81
2022/04/04 09:12:09;;;;;;;12.10;5.15;;;5.60;99.90;;;;;;5053031;28;20045;-81
2022/04/04 09:14:57;;;;;;;10.00;5.63;;;5.60;99.90;;;;;;5054515;28;20091;-81
2022/04/04 09:17:32;;;;;;;14.90;6.07;;;5.60;99.90;;;;;;5056881;28;20479;-82
2022/04/04 09:20:03;;;;;;;10.50;5.03;;;5.60;99.90;;;;;;5055688;28;20121;-81
2022/04/04 09:22:30;;;;;;;8.93;4.85;;;5.70;99.90;;;;;;5056926;28;20388;-81
2022/04/04 09:24:57;;;;;;;10.80;5.03;;;5.70;99.90;;;;;;5055173;28;20049;-81
2022/04/04 09:27:25;;;;;;;10.38;4.95;;;5.70;99.90;;;;;;5072026;28;20052;-82
2022/04/04 09:29:54;;;;;;;10.93;4.22;;;5.70;99.90;;;;;;5056495;28;20040;-81
2022/04/04 09:32:20;;;;;;;9.63;4.57;;;5.70;99.90;;;;;;5056207;28;20120;-81
2022/04/04 09:35:08;;;;;;;13.52;4.80;;;5.70;99.90;;;;;;5056786;28;20056;-81
2022/04/04 09:37:35;;;;;;;16.10;5.70;;;5.70;99.90;;;;;;5038808;28;20091;-81
2022/04/04 09:40:06;;;;;;;15.98;6.78;;;5.70;99.90;;;;;;5039116;28;20140;-81
2022/04/04 09:42:32;;;;;;;13.90;6.55;;;5.70;99.90;;;;;;5066315;22;20414;-81
2022/04/04 09:45:18;;;;;;;12.50;6.00;;;5.70;99.90;;;;;;5095429;27;20047;-82
2022/04/04 09:48:03;;;;;;;18.38;6.55;;;5.80;99.90;;;;;;5117701;28;20036;-82
2022/04/04 09:50:46;;;;;;;10.38;5.68;;;5.90;99.90;;;;;;5111201;28;20047;-81
2022/04/04 09:53:23;;;;;;;11.50;6.68;;;6.20;99.90;;;;;;5116503;28;20083;-82
2022/04/04 09:55:52;;;;;;;9.65;5.65;;;6.80;99.90;;;;;;5100667;28;20035;-81
2022/04/04 09:58:38;;;;;;;13.10;5.68;;;5.10;99.90;;;;;;5124346;28;20057;-81
2022/04/04 10:01:05;;;;;;;12.32;6.72;;;6.10;99.90;;;;;;5107991;28;20042;-82
2022/04/04 10:03:31;;;;;;;13.88;6.25;;;5.90;99.90;;;;;;5124917;28;20491;-82
2022/04/04 10:06:09;;;;;;;13.40;5.90;;;6.00;99.90;;;;;;5126489;27;20486;-82
2022/04/04 10:08:37;;;;;;;13.20;5.18;;;6.00;99.90;;;;;;5124275;27;20040;-81
2022/04/04 10:11:04;;;;;;;12.25;6.03;;;6.00;99.90;;;;;;5142543;27;20036;-81
2022/04/04 10:13:31;;;;;;;12.77;6.05;;;6.10;99.90;;;;;;5107704;27;20498;-81
2022/04/04 10:15:57;;;;;;;9.52;5.18;;;7.00;99.90;;;;;;5123242;27;20035;-82
2022/04/04 10:18:23;;;;;;;11.55;6.03;;;6.10;99.90;;;;;;5108227;28;20054;-82
2022/04/04 10:20:53;;;;;;;13.93;6.70;;;6.20;99.90;;;;;;5120787;28;20044;-82
2022/04/04 10:23:19;;;;;;;10.93;5.65;;;6.80;99.90;;;;;;5120331;28;20051;-81
2022/04/04 10:25:49;;;;;;;12.80;6.25;;;6.20;99.90;;;;;;5120338;28;20089;-82
2022/04/04 10:28:26;;;;;;;12.80;6.68;;;6.20;99.90;;;;;;5085627;28;20044;-82
2022/04/04 10:30:52;;;;;;;9.65;5.45;;;6.20;99.90;;;;;;5136933;27;20084;-82
2022/04/04 10:33:20;;;;;;;11.52;5.15;;;6.20;99.90;;;;;;5097938;27;20043;-82
2022/04/04 10:36:00;;;;;;;16.80;5.85;;;6.30;99.90;;;;;;5105425;28;20047;-81
2022/04/04 10:38:30;;;;;;;10.90;5.90;;;6.30;99.90;;;;;;5121028;28;20043;-82
2022/04/04 10:40:57;;;;;;;13.07;5.68;;;6.80;99.90;;;;;;5139427;27;20538;-81
2022/04/04 10:43:23;;;;;;;10.82;5.35;;;6.30;99.90;;;;;;5090058;28;20062;-81
2022/04/04 10:46:03;;;;;;;11.05;5.38;;;6.40;99.90;;;;;;5122579;28;20051;-81
2022/04/04 10:48:36;;;;;;;11.75;5.90;;;6.50;99.90;;;;;;5103868;28;20043;-81
2022/04/04 10:51:19;;;;;;;9.50;4.72;;;6.40;99.90;;;;;;5117820;28;20395;-82
2022/04/04 10:53:59;;;;;;;9.85;4.63;;;6.40;99.90;;;;;;5101789;28;20044;-82
2022/04/04 10:56:29;;;;;;;9.00;5.00;;;6.40;99.90;;;;;;5101306;28;20091;-82
2022/04/04 10:59:21;;;;;;;8.93;4.63;;;6.50;99.90;;;;;;5084055;28;20074;-81
2022/04/04 11:01:51;;;;;;;9.38;5.03;;;6.50;99.90;;;;;;5133344;27;20047;-81
2022/04/04 11:04:27;;;;;;;11.13;4.43;;;6.50;99.90;;;;;;5121429;28;20071;-81
2022/04/04 11:09:53;;;;;;;;;;;6.60;99.90;;;;;;5121689;28;19975;-82
2022/04/04 11:12:22;;;;;;;8.75;4.15;;;6.70;99.90;;;;;;5085307;28;19930;-82
2022/04/04 11:15:01;;;;;;;8.88;4.28;;;6.60;99.90;;;;;;5123764;27;20066;-82
2022/04/04 11:17:31;;;;;;;5.65;3.38;;;6.60;99.90;;;;;;5126392;27;20039;-82
2022/04/04 11:20:21;;;;;;;9.98;3.50;;;6.60;99.90;;;;;;5126563;27;20127;-82
2022/04/04 11:22:51;;;;;;;6.13;3.83;;;6.70;99.90;;;;;;5110421;28;20044;-81
2022/04/04 11:25:19;;;;;;;7.65;4.38;;;6.70;99.90;;;;;;5066737;28;20388;-82
2022/04/04 11:27:48;;;;;;;8.23;3.85;;;6.70;99.90;;;;;;5100822;28;20413;-82
2022/04/04 11:30:20;;;;;;;7.15;3.60;;;6.30;99.90;;;;;;5090547;27;20117;-82
2022/04/04 11:32:49;;;;;;;6.72;3.35;;;6.80;99.90;;;;;;5106056;27;20517;-82
2022/04/04 11:35:27;;;;;;;6.60;3.63;;;6.80;99.90;;;;;;5124667;28;20068;-81
2022/04/04 11:37:59;;;;;;;5.78;4.00;;;6.80;99.90;;;;;;5124229;28;20047;-81
2022/04/04 11:40:34;;;;;;;5.85;4.10;;;7.80;99.90;;;;;;5111921;22;20056;-82
2022/04/04 11:43:02;;;;;;;5.13;3.33;;;6.90;99.90;;;;;;5095512;28;20052;-82
2022/04/04 11:45:32;;;;;;;5.75;3.90;;;7.20;99.90;;;;;;5113665;28;20067;-83
2022/04/04 11:48:04;;;;;;;4.90;3.20;;;7.00;99.90;;;;;;5080793;28;20079;-81
2022/04/04 11:50:32;;;;;;;9.60;4.22;;;7.00;99.90;;;;;;5096777;28;20045;-81
2022/04/04 11:53:04;;;;;;;7.80;4.82;;;7.00;99.90;;;;;;5079962;28;20055;-82
2022/04/04 11:55:32;;;;;;;5.88;3.35;;;7.10;99.90;;;;;;5096512;22;20048;-81
2022/04/04 11:58:00;;;;;;;6.07;3.70;;;7.20;99.90;;;;;;5059399;28;20057;-81
2022/04/04 12:00:35;;;;;;;6.88;3.58;;;7.30;99.90;;;;;;5042019;28;20051;-81
2022/04/04 12:03:12;;;;;;;7.22;3.65;;;7.10;99.90;;;;;;5041372;28;20045;-81
2022/04/04 12:05:43;;;;;;;6.13;3.25;;;7.20;99.90;;;;;;5058332;28;20052;-81
2022/04/04 12:08:10;;;;;;;5.70;3.22;;;7.20;99.90;;;;;;5041368;28;20488;-81
2022/04/04 12:10:37;;;;;;;4.10;1.90;;;7.80;99.90;;;;;;5058898;28;20045;-81
2022/04/04 12:13:18;;;;;;;5.85;2.50;;;7.70;99.90;;;;;;5041377;28;20052;-80
2022/04/04 12:15:46;;;;;;;6.72;2.90;;;7.80;99.90;;;;;;5057999;28;20052;-81
2022/04/04 12:18:19;;;;;;;3.97;2.33;;;8.10;99.90;;;;;;5057044;28;20105;-81
2022/04/04 12:20:46;;;;;;;7.28;4.00;;;7.30;99.90;;;;;;5040927;28;20060;-81
2022/04/04 12:26:00;;;;;;;4.45;2.42;;;7.30;99.90;;;;;;5045595;28;20076;-80
2022/04/04 12:28:29;;;;;;;5.28;2.55;;;7.50;99.90;;;;;;5057944;28;20484;-81
2022/04/04 12:30:55;;;;;;;6.15;2.95;;;6.30;99.90;;;;;;5060832;28;20435;-82
2022/04/04 12:33:29;;;;;;;7.47;3.35;;;7.10;99.90;;;;;;5059180;28;20057;-82
2022/04/04 12:35:55;;;;;;;5.40;2.80;;;8.30;99.90;;;;;;5041165;28;20484;-81
2022/04/04 12:38:26;;;;;;;9.23;4.05;;;8.90;99.90;;;;;;5041998;28;20045;-82
2022/04/04 12:41:08;;;;;;;6.18;3.10;;;8.60;99.90;;;;;;5058384;28;20055;-81
2022/04/04 12:43:35;;;;;;;7.40;4.00;;;7.70;99.90;;;;;;5040912;28;20158;-82
2022/04/04 12:46:01;;;;;;;8.57;3.78;;;8.30;99.90;;;;;;5040547;28;20041;-82
2022/04/04 12:48:38;;;;;;;8.77;4.88;;;7.50;99.90;;;;;;5040763;28;20041;-82
2022/04/04 12:51:06;;;;;;;6.82;4.03;;;7.60;99.90;;;;;;5045094;28;20187;-82
2022/04/04 12:53:52;;;;;;;7.53;4.00;;;8.20;99.90;;;;;;5045532;28;20047;-82
2022/04/04 12:56:18;;;;;;;8.38;4.50;;;7.60;99.90;;;;;;5044125;28;20396;-82
2022/04/04 12:59:00;;;;;;;9.48;5.28;;;8.50;99.90;;;;;;5044499;28;20049;-82
2022/04/04 13:01:25;;;;;;;9.90;5.45;;;7.60;99.90;;;;;;5060305;28;20049;-82
2022/04/04 13:03:53;;;;;;;11.40;5.32;;;7.60;99.90;;;;;;5060900;28;20059;-82
2022/04/04 13:06:22;;;;;;;12.38;5.82;;;7.70;99.90;;;;;;5044055;28;20045;-82
2022/04/04 13:08:57;;;;;;;16.10;6.32;;;7.70;99.90;;;;;;5060770;28;20045;-82
2022/04/04 13:11:24;;;;;;;16.10;7.25;;;7.80;99.90;;;;;;5061301;28;20503;-83
2022/04/04 13:14:06;;;;;;;17.77;7.30;;;7.90;99.90;;;;;;5061172;28;20045;-80
2022/04/04 13:16:45;;;;;;;17.17;7.68;;;7.90;99.90;;;;;;5061229;28;20447;-80
2022/04/04 13:19:15;;;;;;;18.33;8.43;;;8.00;99.90;;;;;;5061926;28;20155;-80
2022/04/04 13:21:50;;;;;;;16.80;8.25;;;8.10;99.90;;;;;;5044861;28;20135;-80